createdAt,value
2016-11-19T00:00:32.485Z,19.92
2016-11-19T00:01:32.470Z,19.83
2016-11-19T00:02:32.139Z,19.86
2016-11-19T00:03:32.429Z,19.86
2016-11-19T00:04:32.418Z,19.83
2016-11-19T00:05:32.405Z,19.86
2016-11-19T00:06:32.384Z,19.85
2016-11-19T00:07:32.371Z,19.85
2016-11-19T00:08:32.356Z,19.82
2016-11-19T00:09:32.335Z,19.87
2016-11-19T00:10:32.008Z,19.92
2016-11-19T00:11:32.300Z,19.85
2016-11-19T00:12:32.289Z,19.85
2016-11-19T00:13:32.270Z,19.85
2016-11-19T00:14:32.263Z,19.86
2016-11-19T00:15:32.238Z,19.82
2016-11-19T00:16:32.225Z,19.78
2016-11-19T00:17:32.221Z,19.85
2016-11-19T00:18:31.872Z,19.86
2016-11-19T00:19:31.551Z,19.79
2016-11-19T00:20:32.158Z,19.76
2016-11-19T00:21:31.826Z,19.85
2016-11-19T00:22:32.129Z,19.79
2016-11-19T00:23:31.792Z,19.71
2016-11-19T00:24:32.091Z,19.82
2016-11-19T00:25:31.766Z,19.86
2016-11-19T00:26:32.059Z,19.8
2016-11-19T00:27:32.050Z,19.8
2016-11-19T00:28:32.032Z,19.82
2016-11-19T00:29:32.017Z,19.78
2016-11-19T00:30:32.003Z,19.79
2016-11-19T00:31:31.986Z,19.76
2016-11-19T00:32:31.650Z,19.72
2016-11-19T00:33:31.947Z,19.82
2016-11-19T00:34:31.929Z,19.78
2016-11-19T00:35:31.914Z,19.7
2016-11-19T00:36:31.901Z,19.68
2016-11-19T00:37:31.886Z,19.76
2016-11-19T00:38:31.860Z,19.7
2016-11-19T00:39:31.535Z,19.64
2016-11-19T00:40:31.840Z,19.67
2016-11-19T00:41:31.821Z,19.62
2016-11-19T00:42:31.809Z,19.67
2016-11-19T00:43:31.791Z,19.75
2016-11-19T00:44:31.777Z,19.7
2016-11-19T00:45:31.754Z,19.72
2016-11-19T00:46:31.735Z,19.75
2016-11-19T00:47:31.730Z,19.7
2016-11-19T00:48:31.715Z,19.71
2016-11-19T00:49:31.692Z,19.67
2016-11-19T00:50:31.674Z,19.6
2016-11-19T00:51:31.655Z,19.68
2016-11-19T00:52:31.014Z,19.67
2016-11-19T00:53:31.661Z,19.7
2016-11-19T00:54:31.608Z,19.67
2016-11-19T00:55:31.598Z,19.71
2016-11-19T00:56:31.576Z,19.62
2016-11-19T00:57:31.556Z,19.62
2016-11-19T00:58:31.542Z,19.6
2016-11-19T00:59:31.528Z,19.58
2016-11-19T01:00:31.503Z,19.62
2016-11-19T01:01:31.496Z,19.61
2016-11-19T01:02:31.479Z,19.6
2016-11-19T01:03:31.487Z,19.57
2016-11-19T01:04:31.130Z,19.61
2016-11-19T01:05:31.431Z,19.58
2016-11-19T01:06:31.094Z,19.58
2016-11-19T01:07:31.398Z,19.53
2016-11-19T01:08:31.060Z,19.55
2016-11-19T01:09:31.352Z,19.57
2016-11-19T01:10:31.353Z,19.53
2016-11-19T01:11:31.367Z,19.53
2016-11-19T01:12:31.317Z,19.55
2016-11-19T01:13:31.300Z,19.53
2016-11-19T01:14:31.283Z,19.57
2016-11-19T01:15:31.267Z,19.62
2016-11-19T01:16:31.250Z,19.57
2016-11-19T01:17:31.236Z,19.38
2016-11-19T01:18:31.412Z,19.45
2016-11-19T01:19:30.879Z,19.42
2016-11-19T01:20:31.184Z,19.46
2016-11-19T01:21:31.199Z,19.53
2016-11-19T01:22:31.148Z,19.53
2016-11-19T01:23:31.132Z,19.45
2016-11-19T01:24:30.805Z,19.57
2016-11-19T01:25:31.096Z,19.53
2016-11-19T01:26:30.450Z,19.53
2016-11-19T01:27:31.069Z,19.46
2016-11-19T01:28:30.740Z,19.45
2016-11-19T01:29:31.045Z,19.43
2016-11-19T01:30:30.700Z,19.43
2016-11-19T01:31:31.013Z,19.45
2016-11-19T01:32:30.987Z,19.42
2016-11-19T01:33:30.978Z,19.4
2016-11-19T01:34:30.642Z,19.4
2016-11-19T01:35:30.933Z,19.4
2016-11-19T01:36:30.925Z,19.45
2016-11-19T01:37:30.901Z,19.43
2016-11-19T01:38:30.576Z,19.4
2016-11-19T01:39:30.557Z,19.35
2016-11-19T01:40:30.546Z,19.38
2016-11-19T01:41:30.545Z,19.46
2016-11-19T01:42:30.506Z,19.42
2016-11-19T01:43:30.806Z,19.43
2016-11-19T01:44:30.787Z,19.35
2016-11-19T01:45:30.806Z,19.43
2016-11-19T01:46:30.763Z,19.4
2016-11-19T01:47:30.426Z,19.42
2016-11-19T01:48:30.729Z,19.46
2016-11-19T01:49:30.711Z,19.43
2016-11-19T01:50:30.693Z,19.43
2016-11-19T01:51:30.681Z,19.4
2016-11-19T01:52:30.347Z,19.43
2016-11-19T01:53:30.646Z,19.28
2016-11-19T01:54:30.622Z,19.35
2016-11-19T01:55:30.609Z,19.35
2016-11-19T01:56:30.284Z,19.31
2016-11-19T01:57:30.257Z,19.38
2016-11-19T01:58:30.244Z,19.3
2016-11-19T01:59:30.544Z,19.43
2016-11-19T02:00:30.523Z,19.35
2016-11-19T02:01:30.512Z,19.35
2016-11-19T02:02:30.179Z,19.34
2016-11-19T02:03:30.478Z,19.31
2016-11-19T02:04:30.467Z,19.42
2016-11-19T02:05:30.451Z,19.27
2016-11-19T02:06:30.431Z,19.31
2016-11-19T02:07:30.097Z,19.34
2016-11-19T02:08:30.383Z,19.35
2016-11-19T02:09:30.382Z,19.24
2016-11-19T02:10:30.373Z,19.28
2016-11-19T02:11:30.337Z,19.25
2016-11-19T02:12:30.324Z,19.27
2016-11-19T02:13:30.307Z,19.25
2016-11-19T02:14:30.298Z,19.3
2016-11-19T02:15:30.283Z,19.27
2016-11-19T02:16:30.261Z,19.28
2016-11-19T02:17:30.248Z,19.28
2016-11-19T02:18:30.238Z,19.28
2016-11-19T02:19:30.212Z,19.32
2016-11-19T02:20:30.199Z,19.25
2016-11-19T02:21:30.170Z,19.28
2016-11-19T02:22:29.528Z,19.3
2016-11-19T02:23:30.141Z,19.28
2016-11-19T02:24:30.129Z,19.28
2016-11-19T02:25:30.107Z,19.28
2016-11-19T02:26:30.089Z,19.31
2016-11-19T02:27:30.079Z,19.35
2016-11-19T02:28:30.063Z,19.32
2016-11-19T02:29:30.051Z,19.28
2016-11-19T02:30:29.715Z,19.42
2016-11-19T02:31:30.017Z,19.39
2016-11-19T02:32:29.994Z,19.4
2016-11-19T02:33:29.975Z,19.43
2016-11-19T02:34:29.968Z,19.39
2016-11-19T02:35:29.946Z,19.28
2016-11-19T02:36:29.930Z,19.38
2016-11-19T02:37:29.912Z,19.45
2016-11-19T02:38:29.900Z,19.4
2016-11-19T02:39:29.874Z,19.45
2016-11-19T02:40:29.857Z,19.47
2016-11-19T02:41:29.540Z,19.38
2016-11-19T02:42:29.828Z,19.45
2016-11-19T02:43:29.822Z,19.47
2016-11-19T02:44:29.799Z,19.42
2016-11-19T02:45:29.783Z,19.43
2016-11-19T02:46:29.762Z,19.38
2016-11-19T02:47:29.429Z,19.47
2016-11-19T02:48:29.727Z,19.47
2016-11-19T02:49:29.710Z,19.43
2016-11-19T02:50:29.693Z,19.38
2016-11-19T02:51:29.670Z,19.42
2016-11-19T02:52:29.661Z,19.43
2016-11-19T02:53:29.641Z,19.42
2016-11-19T02:54:29.634Z,19.43
2016-11-19T02:55:29.613Z,19.4
2016-11-19T02:56:29.600Z,19.4
2016-11-19T02:57:29.586Z,19.42
2016-11-19T02:58:29.565Z,19.45
2016-11-19T02:59:29.554Z,19.34
2016-11-19T03:00:29.535Z,19.46
2016-11-19T03:01:29.512Z,19.46
2016-11-19T03:02:29.179Z,19.45
2016-11-19T03:03:29.485Z,19.4
2016-11-19T03:04:29.470Z,19.45
2016-11-19T03:05:29.457Z,19.45
2016-11-19T03:06:29.438Z,19.4
2016-11-19T03:07:29.422Z,19.46
2016-11-19T03:08:29.400Z,19.43
2016-11-19T03:09:29.384Z,19.49
2016-11-19T03:10:29.369Z,19.4
2016-11-19T03:11:29.346Z,19.5
2016-11-19T03:12:29.346Z,19.39
2016-11-19T03:13:29.319Z,19.38
2016-11-19T03:14:29.306Z,19.34
2016-11-19T03:15:29.283Z,19.42
2016-11-19T03:16:29.269Z,19.39
2016-11-19T03:17:29.248Z,19.31
2016-11-19T03:18:29.237Z,19.42
2016-11-19T03:19:29.214Z,19.46
2016-11-19T03:20:29.195Z,19.43
2016-11-19T03:21:29.186Z,19.39
2016-11-19T03:22:28.846Z,19.28
2016-11-19T03:23:28.831Z,19.32
2016-11-19T03:24:29.136Z,19.34
2016-11-19T03:25:29.122Z,19.31
2016-11-19T03:26:29.106Z,19.34
2016-11-19T03:27:29.092Z,19.32
2016-11-19T03:28:29.079Z,19.31
2016-11-19T03:29:29.076Z,19.39
2016-11-19T03:30:29.045Z,19.34
2016-11-19T03:31:28.706Z,19.34
2016-11-19T03:32:29.010Z,19.34
2016-11-19T03:33:28.681Z,19.32
2016-11-19T03:34:28.652Z,19.38
2016-11-19T03:35:28.951Z,19.32
2016-11-19T03:36:28.926Z,19.35
2016-11-19T03:37:28.920Z,19.34
2016-11-19T03:38:28.899Z,19.35
2016-11-19T03:39:28.884Z,19.32
2016-11-19T03:40:28.870Z,19.32
2016-11-19T03:41:28.851Z,19.3
2016-11-19T03:42:28.834Z,19.28
2016-11-19T03:43:28.825Z,19.27
2016-11-19T03:44:28.489Z,19.32
2016-11-19T03:45:28.780Z,19.28
2016-11-19T03:46:28.771Z,19.31
2016-11-19T03:47:28.753Z,19.28
2016-11-19T03:48:28.737Z,19.24
2016-11-19T03:49:28.721Z,19.28
2016-11-19T03:50:28.388Z,19.24
2016-11-19T03:51:28.685Z,19.3
2016-11-19T03:52:28.660Z,19.23
2016-11-19T03:53:28.335Z,19.23
2016-11-19T03:54:28.317Z,19.28
2016-11-19T03:55:28.620Z,19.17
2016-11-19T03:56:28.597Z,19.24
2016-11-19T03:57:28.584Z,19.2
2016-11-19T03:58:28.567Z,19.25
2016-11-19T03:59:28.235Z,19.17
2016-11-19T04:00:28.532Z,19.3
2016-11-19T04:01:28.513Z,19.25
2016-11-19T04:02:28.504Z,19.3
2016-11-19T04:03:28.485Z,19.23
2016-11-19T04:04:28.466Z,19.27
2016-11-19T04:05:28.456Z,19.23
2016-11-19T04:06:28.437Z,19.23
2016-11-19T04:07:28.417Z,19.27
2016-11-19T04:08:28.403Z,19.16
2016-11-19T04:09:28.395Z,19.2
2016-11-19T04:10:28.376Z,19.23
2016-11-19T04:11:28.351Z,19.17
2016-11-19T04:12:28.330Z,19.25
2016-11-19T04:13:28.319Z,19.24
2016-11-19T04:14:28.347Z,19.24
2016-11-19T04:15:28.288Z,19.16
2016-11-19T04:16:28.287Z,19.24
2016-11-19T04:17:28.258Z,19.23
2016-11-19T04:18:27.914Z,19.2
2016-11-19T04:19:28.222Z,19.31
2016-11-19T04:20:28.200Z,19.2
2016-11-19T04:21:27.869Z,19.15
2016-11-19T04:22:28.168Z,19.13
2016-11-19T04:23:28.151Z,19.27
2016-11-19T04:24:28.138Z,19.16
2016-11-19T04:25:28.122Z,19.23
2016-11-19T04:26:28.099Z,19.13
2016-11-19T04:27:28.084Z,19.2
2016-11-19T04:28:28.069Z,19.13
2016-11-19T04:29:28.054Z,19.1
2016-11-19T04:30:28.033Z,19.25
2016-11-19T04:31:28.011Z,19.2
2016-11-19T04:32:28.002Z,19.15
2016-11-19T04:33:27.979Z,19.17
2016-11-19T04:34:27.972Z,19.15
2016-11-19T04:35:27.960Z,19.1
2016-11-19T04:36:27.943Z,19.23
2016-11-19T04:37:27.953Z,19.16
2016-11-19T04:38:27.901Z,19.25
2016-11-19T04:39:27.883Z,19.2
2016-11-19T04:40:27.871Z,19.25
2016-11-19T04:41:27.855Z,19.17
2016-11-19T04:42:27.838Z,19.16
2016-11-19T04:43:27.814Z,19.13
2016-11-19T04:44:27.810Z,19.17
2016-11-19T04:45:27.812Z,19.16
2016-11-19T04:46:27.765Z,19.16
2016-11-19T04:47:27.749Z,19.16
2016-11-19T04:48:27.727Z,19.16
2016-11-19T04:49:27.720Z,19.12
2016-11-19T04:50:27.703Z,19.15
2016-11-19T04:51:27.682Z,19.23
2016-11-19T04:52:27.674Z,19.13
2016-11-19T04:53:27.659Z,19.13
2016-11-19T04:54:27.640Z,19.17
2016-11-19T04:55:27.615Z,19.15
2016-11-19T04:56:27.611Z,19.13
2016-11-19T04:57:27.584Z,19.12
2016-11-19T04:58:27.570Z,19.1
2016-11-19T04:59:27.546Z,19.13
2016-11-19T05:00:27.533Z,19.13
2016-11-19T05:01:27.519Z,19.15
2016-11-19T05:02:27.498Z,19.09
2016-11-19T05:03:27.481Z,19.09
2016-11-19T05:04:27.475Z,19.09
2016-11-19T05:05:27.458Z,19.21
2016-11-19T05:06:27.431Z,19.23
2016-11-19T05:07:27.410Z,19.27
2016-11-19T05:08:27.400Z,19.34
2016-11-19T05:09:27.379Z,19.45
2016-11-19T05:10:27.370Z,19.61
2016-11-19T05:11:27.351Z,19.61
2016-11-19T05:12:27.018Z,19.65
2016-11-19T05:13:27.321Z,19.78
2016-11-19T05:14:27.289Z,19.78
2016-11-19T05:15:27.274Z,19.85
2016-11-19T05:16:27.275Z,19.86
2016-11-19T05:17:27.246Z,19.98
2016-11-19T05:18:27.259Z,19.98
2016-11-19T05:19:27.213Z,20.07
2016-11-19T05:20:27.200Z,20.1
2016-11-19T05:21:27.185Z,20.04
2016-11-19T05:22:27.164Z,20.2
2016-11-19T05:23:27.147Z,20.25
2016-11-19T05:24:27.123Z,20.2
2016-11-19T05:25:27.114Z,20.23
2016-11-19T05:26:27.098Z,20.2
2016-11-19T05:27:27.086Z,20.2
2016-11-19T05:28:27.063Z,20.22
2016-11-19T05:29:27.054Z,20.2
2016-11-19T05:30:27.038Z,20.19
2016-11-19T05:31:27.019Z,20.19
2016-11-19T05:32:27.002Z,20.22
2016-11-19T05:33:26.985Z,20.17
2016-11-19T05:34:26.973Z,20.19
2016-11-19T05:35:26.946Z,20.22
2016-11-19T05:36:26.927Z,20.25
2016-11-19T05:37:26.922Z,20.25
2016-11-19T05:38:26.901Z,20.26
2016-11-19T05:39:26.573Z,20.2
2016-11-19T05:40:26.548Z,20.17
2016-11-19T05:41:26.861Z,20.25
2016-11-19T05:42:26.836Z,20.23
2016-11-19T05:43:26.813Z,20.25
2016-11-19T05:44:26.799Z,20.26
2016-11-19T05:45:26.783Z,20.25
2016-11-19T05:46:26.776Z,20.25
2016-11-19T05:47:26.752Z,20.25
2016-11-19T05:48:26.741Z,20.31
2016-11-19T05:49:26.713Z,20.23
2016-11-19T05:50:26.706Z,20.33
2016-11-19T05:51:26.685Z,20.2
2016-11-19T05:52:26.676Z,20.26
2016-11-19T05:53:26.668Z,20.27
2016-11-19T05:54:26.676Z,20.25
2016-11-19T05:55:26.615Z,20.26
2016-11-19T05:56:26.608Z,20.3
2016-11-19T05:57:26.269Z,20.26
2016-11-19T05:58:26.568Z,20.23
2016-11-19T05:59:26.556Z,20.3
2016-11-19T06:00:26.537Z,20.27
2016-11-19T06:01:26.523Z,20.35
2016-11-19T06:02:26.502Z,20.33
2016-11-19T06:03:26.495Z,20.34
2016-11-19T06:04:26.474Z,20.38
2016-11-19T06:05:26.463Z,20.37
2016-11-19T06:06:26.437Z,20.33
2016-11-19T06:07:26.432Z,20.38
2016-11-19T06:08:26.411Z,20.34
2016-11-19T06:09:26.077Z,20.31
2016-11-19T06:10:26.382Z,20.3
2016-11-19T06:11:26.355Z,20.37
2016-11-19T06:12:26.344Z,20.35
2016-11-19T06:13:26.009Z,20.4
2016-11-19T06:14:26.000Z,20.37
2016-11-19T06:15:26.295Z,20.34
2016-11-19T06:16:26.283Z,20.38
2016-11-19T06:17:26.271Z,20.37
2016-11-19T06:18:26.249Z,20.35
2016-11-19T06:19:26.236Z,20.34
2016-11-19T06:20:25.898Z,20.4
2016-11-19T06:21:26.192Z,20.4
2016-11-19T06:22:26.179Z,20.44
2016-11-19T06:23:25.533Z,20.42
2016-11-19T06:24:26.182Z,20.42
2016-11-19T06:25:26.131Z,20.38
2016-11-19T06:26:26.111Z,20.51
2016-11-19T06:27:26.104Z,20.44
2016-11-19T06:28:26.084Z,20.41
2016-11-19T06:29:26.067Z,20.42
2016-11-19T06:30:26.060Z,20.4
2016-11-19T06:31:26.040Z,20.4
2016-11-19T06:32:26.049Z,20.4
2016-11-19T06:33:25.998Z,20.41
2016-11-19T06:34:25.673Z,20.33
2016-11-19T06:35:25.656Z,20.34
2016-11-19T06:36:25.958Z,20.33
2016-11-19T06:37:25.939Z,20.38
2016-11-19T06:38:25.929Z,20.42
2016-11-19T06:39:25.590Z,20.42
2016-11-19T06:40:25.895Z,20.48
2016-11-19T06:41:25.867Z,20.5
2016-11-19T06:42:25.864Z,20.5
2016-11-19T06:43:25.839Z,20.53
2016-11-19T06:44:25.832Z,20.46
2016-11-19T06:45:25.810Z,20.48
2016-11-19T06:46:25.477Z,20.53
2016-11-19T06:47:25.776Z,20.41
2016-11-19T06:48:25.441Z,20.51
2016-11-19T06:49:25.748Z,20.46
2016-11-19T06:50:25.730Z,20.5
2016-11-19T06:51:25.712Z,20.56
2016-11-19T06:52:25.692Z,20.61
2016-11-19T06:53:25.683Z,20.57
2016-11-19T06:54:25.685Z,20.57
2016-11-19T06:55:25.650Z,20.54
2016-11-19T06:56:25.313Z,20.57
2016-11-19T06:57:25.622Z,20.51
2016-11-19T06:58:25.600Z,20.5
2016-11-19T06:59:25.585Z,20.57
2016-11-19T07:00:25.564Z,20.51
2016-11-19T07:01:25.556Z,20.61
2016-11-19T07:02:25.540Z,20.48
2016-11-19T07:03:25.526Z,20.53
2016-11-19T07:04:25.506Z,20.48
2016-11-19T07:05:25.487Z,20.6
2016-11-19T07:06:25.470Z,20.58
2016-11-19T07:07:25.134Z,20.58
2016-11-19T07:08:25.442Z,20.61
2016-11-19T07:09:25.418Z,20.6
2016-11-19T07:10:25.083Z,20.6
2016-11-19T07:11:25.387Z,20.58
2016-11-19T07:12:25.374Z,20.48
2016-11-19T07:13:25.359Z,20.58
2016-11-19T07:14:25.340Z,20.58
2016-11-19T07:15:25.322Z,20.66
2016-11-19T07:16:24.986Z,20.57
2016-11-19T07:17:25.296Z,20.63
2016-11-19T07:18:25.273Z,20.58
2016-11-19T07:19:25.272Z,20.6
2016-11-19T07:20:25.247Z,20.54
2016-11-19T07:21:25.233Z,20.58
2016-11-19T07:22:25.205Z,20.53
2016-11-19T07:23:25.193Z,20.6
2016-11-19T07:24:25.185Z,20.58
2016-11-19T07:25:24.541Z,20.6
2016-11-19T07:26:25.146Z,20.61
2016-11-19T07:27:25.131Z,20.56
2016-11-19T07:28:25.117Z,20.63
2016-11-19T07:29:25.098Z,20.69
2016-11-19T07:30:25.079Z,20.66
2016-11-19T07:31:25.070Z,20.58
2016-11-19T07:32:25.068Z,20.64
2016-11-19T07:33:25.043Z,20.61
2016-11-19T07:34:24.715Z,20.66
2016-11-19T07:35:25.035Z,20.63
2016-11-19T07:36:24.989Z,20.66
2016-11-19T07:37:24.969Z,20.66
2016-11-19T07:38:24.968Z,20.63
2016-11-19T07:39:24.942Z,20.63
2016-11-19T07:40:24.932Z,20.63
2016-11-19T07:41:24.592Z,20.63
2016-11-19T07:42:24.576Z,20.66
2016-11-19T07:43:24.886Z,20.66
2016-11-19T07:44:24.871Z,20.64
2016-11-19T07:45:24.532Z,20.66
2016-11-19T07:46:24.841Z,20.63
2016-11-19T07:47:24.503Z,20.64
2016-11-19T07:48:24.806Z,20.6
2016-11-19T07:49:24.780Z,20.64
2016-11-19T07:50:24.768Z,20.63
2016-11-19T07:51:24.757Z,20.69
2016-11-19T07:52:24.730Z,20.63
2016-11-19T07:53:24.729Z,20.66
2016-11-19T07:54:24.710Z,20.63
2016-11-19T07:55:24.698Z,20.64
2016-11-19T07:56:24.671Z,20.73
2016-11-19T07:57:24.655Z,20.68
2016-11-19T07:58:24.323Z,20.68
2016-11-19T07:59:24.624Z,20.72
2016-11-19T08:00:24.293Z,20.73
2016-11-19T08:01:24.592Z,20.64
2016-11-19T08:02:24.590Z,20.68
2016-11-19T08:03:24.566Z,20.68
2016-11-19T08:04:24.550Z,20.66
2016-11-19T08:05:24.218Z,20.66
2016-11-19T08:06:24.520Z,20.71
2016-11-19T08:07:24.499Z,20.64
2016-11-19T08:08:24.486Z,20.61
2016-11-19T08:09:24.475Z,20.66
2016-11-19T08:10:24.450Z,20.63
2016-11-19T08:11:24.444Z,20.69
2016-11-19T08:12:24.417Z,20.63
2016-11-19T08:13:24.406Z,20.64
2016-11-19T08:14:24.383Z,20.63
2016-11-19T08:15:24.372Z,20.72
2016-11-19T08:16:24.362Z,20.64
2016-11-19T08:17:24.343Z,20.63
2016-11-19T08:18:24.326Z,20.78
2016-11-19T08:19:24.305Z,20.78
2016-11-19T08:20:23.980Z,20.61
2016-11-19T08:21:24.282Z,20.64
2016-11-19T08:22:24.260Z,20.68
2016-11-19T08:23:24.249Z,20.73
2016-11-19T08:24:23.928Z,20.71
2016-11-19T08:25:24.218Z,20.76
2016-11-19T08:26:24.196Z,20.71
2016-11-19T08:27:24.185Z,20.75
2016-11-19T08:28:23.855Z,20.75
2016-11-19T08:29:24.151Z,20.76
2016-11-19T08:30:24.136Z,20.72
2016-11-19T08:31:23.808Z,20.71
2016-11-19T08:32:24.102Z,20.75
2016-11-19T08:33:24.087Z,20.71
2016-11-19T08:34:24.073Z,20.81
2016-11-19T08:35:24.059Z,20.68
2016-11-19T08:36:24.043Z,20.72
2016-11-19T08:37:24.034Z,20.63
2016-11-19T08:38:24.010Z,20.68
2016-11-19T08:39:23.679Z,20.71
2016-11-19T08:40:23.976Z,20.63
2016-11-19T08:41:23.959Z,20.68
2016-11-19T08:42:23.624Z,20.68
2016-11-19T08:43:23.928Z,20.63
2016-11-19T08:44:23.913Z,20.76
2016-11-19T08:45:23.896Z,20.66
2016-11-19T08:46:23.881Z,20.64
2016-11-19T08:47:23.865Z,20.78
2016-11-19T08:48:23.850Z,20.68
2016-11-19T08:49:23.865Z,20.66
2016-11-19T08:50:23.810Z,20.69
2016-11-19T08:51:23.803Z,20.79
2016-11-19T08:52:23.784Z,20.73
2016-11-19T08:53:23.776Z,20.71
2016-11-19T08:54:23.761Z,20.81
2016-11-19T08:55:23.738Z,20.72
2016-11-19T08:56:23.725Z,20.73
2016-11-19T08:57:23.706Z,20.64
2016-11-19T08:58:23.692Z,20.69
2016-11-19T08:59:23.671Z,20.66
2016-11-19T09:00:23.660Z,20.71
2016-11-19T09:01:23.647Z,20.61
2016-11-19T09:02:23.627Z,20.61
2016-11-19T09:03:23.612Z,20.46
2016-11-19T09:04:23.595Z,20.51
2016-11-19T09:05:23.581Z,20.53
2016-11-19T09:06:23.564Z,20.44
2016-11-19T09:07:23.550Z,20.46
2016-11-19T09:08:23.538Z,20.46
2016-11-19T09:09:23.525Z,20.44
2016-11-19T09:10:23.196Z,20.42
2016-11-19T09:11:23.489Z,20.46
2016-11-19T09:12:23.472Z,20.38
2016-11-19T09:13:23.455Z,20.46
2016-11-19T09:14:23.440Z,20.4
2016-11-19T09:15:23.422Z,20.38
2016-11-19T09:16:23.405Z,20.46
2016-11-19T09:17:23.399Z,20.44
2016-11-19T09:18:23.368Z,20.48
2016-11-19T09:19:23.358Z,20.35
2016-11-19T09:20:23.342Z,20.38
2016-11-19T09:21:23.015Z,20.5
2016-11-19T09:22:23.310Z,20.34
2016-11-19T09:23:23.298Z,20.19
2016-11-19T09:24:23.285Z,19.67
2016-11-19T09:25:22.946Z,19.65
2016-11-19T09:26:23.247Z,19.78
2016-11-19T09:27:23.238Z,19.95
2016-11-19T09:28:23.218Z,20.15
2016-11-19T09:29:23.208Z,20.22
2016-11-19T09:30:23.184Z,20.26
2016-11-19T09:31:22.850Z,20.35
2016-11-19T09:32:23.160Z,20.4
2016-11-19T09:33:23.132Z,20.35
2016-11-19T09:34:23.156Z,20.41
2016-11-19T09:35:23.102Z,20.44
2016-11-19T09:36:23.107Z,20.46
2016-11-19T09:37:23.072Z,20.5
2016-11-19T09:38:23.048Z,20.54
2016-11-19T09:39:22.720Z,20.51
2016-11-19T09:40:23.014Z,20.51
2016-11-19T09:41:23.012Z,20.54
2016-11-19T09:42:22.995Z,20.6
2016-11-19T09:43:22.978Z,20.61
2016-11-19T09:44:22.957Z,20.63
2016-11-19T09:45:22.935Z,20.56
2016-11-19T09:46:22.926Z,20.58
2016-11-19T09:47:22.906Z,20.6
2016-11-19T09:48:22.899Z,20.61
2016-11-19T09:49:22.888Z,20.66
2016-11-19T09:50:22.865Z,19.32
2016-11-19T09:51:22.775Z,18.78
2016-11-19T09:52:22.822Z,18.94
2016-11-19T09:53:22.815Z,19.35
2016-11-19T09:54:22.479Z,19.6
2016-11-19T09:55:22.784Z,19.8
2016-11-19T09:56:22.765Z,20.13
2016-11-19T09:57:22.427Z,20.19
2016-11-19T09:58:22.728Z,20.26
2016-11-19T09:59:22.715Z,20.34
2016-11-19T10:00:22.699Z,20.35
2016-11-19T10:01:22.690Z,20.53
2016-11-19T10:02:22.674Z,20.51
2016-11-19T10:03:22.648Z,20.44
2016-11-19T10:04:22.628Z,20.48
2016-11-19T10:05:21.977Z,20.53
2016-11-19T10:06:22.604Z,20.56
2016-11-19T10:07:22.600Z,20.48
2016-11-19T10:08:22.569Z,20.57
2016-11-19T10:09:22.551Z,20.61
2016-11-19T10:10:22.534Z,20.61
2016-11-19T10:11:22.525Z,20.68
2016-11-19T10:12:22.509Z,20.63
2016-11-19T10:13:22.485Z,20.68
2016-11-19T10:14:22.503Z,20.66
2016-11-19T10:15:22.456Z,20.61
2016-11-19T10:16:22.439Z,20.66
2016-11-19T10:17:22.433Z,20.68
2016-11-19T10:18:22.413Z,20.64
2016-11-19T10:19:22.399Z,20.63
2016-11-19T10:20:22.377Z,20.71
2016-11-19T10:21:22.807Z,20.63
2016-11-19T10:22:22.344Z,20.68
2016-11-19T10:23:22.338Z,20.72
2016-11-19T10:24:22.309Z,20.64
2016-11-19T10:25:22.308Z,20.69
2016-11-19T10:26:22.275Z,20.71
2016-11-19T10:27:21.952Z,20.63
2016-11-19T10:28:22.257Z,20.66
2016-11-19T10:29:22.229Z,20.66
2016-11-19T10:30:22.222Z,20.68
2016-11-19T10:31:21.916Z,20.64
2016-11-19T10:32:22.186Z,20.57
2016-11-19T10:33:22.170Z,20.56
2016-11-19T10:34:22.161Z,20.57
2016-11-19T10:35:21.826Z,20.53
2016-11-19T10:36:21.810Z,20.58
2016-11-19T10:37:22.103Z,20.56
2016-11-19T10:38:22.108Z,20.48
2016-11-19T10:39:21.757Z,20.53
2016-11-19T10:40:22.059Z,20.57
2016-11-19T10:41:22.035Z,20.57
2016-11-19T10:42:22.025Z,20.64
2016-11-19T10:43:22.014Z,20.64
2016-11-19T10:44:21.994Z,20.72
2016-11-19T10:45:21.663Z,20.63
2016-11-19T10:46:21.966Z,20.64
2016-11-19T10:47:21.950Z,20.64
2016-11-19T10:48:21.933Z,20.66
2016-11-19T10:49:21.910Z,20.63
2016-11-19T10:50:21.575Z,20.68
2016-11-19T10:51:21.881Z,20.71
2016-11-19T10:52:21.862Z,20.68
2016-11-19T10:53:21.542Z,20.6
2016-11-19T10:54:21.839Z,20.63
2016-11-19T10:55:21.818Z,20.71
2016-11-19T10:56:21.798Z,20.63
2016-11-19T10:57:21.791Z,20.63
2016-11-19T10:58:21.780Z,20.68
2016-11-19T10:59:21.751Z,20.72
2016-11-19T11:00:21.742Z,20.66
2016-11-19T11:01:21.719Z,20.71
2016-11-19T11:02:21.718Z,20.66
2016-11-19T11:03:21.688Z,20.72
2016-11-19T11:04:21.362Z,20.66
2016-11-19T11:05:21.657Z,20.63
2016-11-19T11:06:21.645Z,20.63
2016-11-19T11:07:21.623Z,20.72
2016-11-19T11:08:21.610Z,20.73
2016-11-19T11:09:21.599Z,20.72
2016-11-19T11:10:21.263Z,20.68
2016-11-19T11:11:21.247Z,20.76
2016-11-19T11:12:21.549Z,20.63
2016-11-19T11:13:21.217Z,20.63
2016-11-19T11:14:21.522Z,20.73
2016-11-19T11:15:21.182Z,20.76
2016-11-19T11:16:21.483Z,20.73
2016-11-19T11:17:21.472Z,20.76
2016-11-19T11:18:21.454Z,20.71
2016-11-19T11:19:21.435Z,20.72
2016-11-19T11:20:21.424Z,20.72
2016-11-19T11:21:21.089Z,20.68
2016-11-19T11:22:21.386Z,20.63
2016-11-19T11:23:21.370Z,20.63
2016-11-19T11:24:21.355Z,20.69
2016-11-19T11:25:21.030Z,20.71
2016-11-19T11:26:21.320Z,20.61
2016-11-19T11:27:21.307Z,20.64
2016-11-19T11:28:20.980Z,20.68
2016-11-19T11:29:20.968Z,20.6
2016-11-19T11:30:21.259Z,20.57
2016-11-19T11:31:21.245Z,20.68
2016-11-19T11:32:20.911Z,20.63
2016-11-19T11:33:21.220Z,20.66
2016-11-19T11:34:21.204Z,20.69
2016-11-19T11:35:21.183Z,20.63
2016-11-19T11:36:21.168Z,20.69
2016-11-19T11:37:20.838Z,20.64
2016-11-19T11:38:21.130Z,20.76
2016-11-19T11:39:21.119Z,20.73
2016-11-19T11:40:21.100Z,20.68
2016-11-19T11:41:21.099Z,20.76
2016-11-19T11:42:20.758Z,20.68
2016-11-19T11:43:21.051Z,20.75
2016-11-19T11:44:21.039Z,20.76
2016-11-19T11:45:21.020Z,20.72
2016-11-19T11:46:21.003Z,20.75
2016-11-19T11:47:20.984Z,20.66
2016-11-19T11:48:20.974Z,20.75
2016-11-19T11:49:20.961Z,20.81
2016-11-19T11:50:20.939Z,20.76
2016-11-19T11:51:20.931Z,20.78
2016-11-19T11:52:20.933Z,20.73
2016-11-19T11:53:20.912Z,20.75
2016-11-19T11:54:20.875Z,20.71
2016-11-19T11:55:20.542Z,20.75
2016-11-19T11:56:20.848Z,20.81
2016-11-19T11:57:20.517Z,20.75
2016-11-19T11:58:20.826Z,20.76
2016-11-19T11:59:20.478Z,20.73
2016-11-19T12:00:20.789Z,20.81
2016-11-19T12:01:20.766Z,20.78
2016-11-19T12:02:20.747Z,20.79
2016-11-19T12:03:20.730Z,20.76
2016-11-19T12:04:20.403Z,20.72
2016-11-19T12:05:20.705Z,20.76
2016-11-19T12:06:20.691Z,20.78
2016-11-19T12:07:20.357Z,20.83
2016-11-19T12:08:20.656Z,20.85
2016-11-19T12:09:20.639Z,20.78
2016-11-19T12:10:20.625Z,20.85
2016-11-19T12:11:20.290Z,20.9
2016-11-19T12:12:20.603Z,20.93
2016-11-19T12:13:20.584Z,20.88
2016-11-19T12:14:20.568Z,20.83
2016-11-19T12:15:20.551Z,20.9
2016-11-19T12:16:20.539Z,20.87
2016-11-19T12:17:20.523Z,20.78
2016-11-19T12:18:20.500Z,20.85
2016-11-19T12:19:20.487Z,20.83
2016-11-19T12:20:20.471Z,20.85
2016-11-19T12:21:20.450Z,20.97
2016-11-19T12:22:20.124Z,20.78
2016-11-19T12:23:20.415Z,20.73
2016-11-19T12:24:20.417Z,20.91
2016-11-19T12:25:20.424Z,20.94
2016-11-19T12:26:20.400Z,20.88
2016-11-19T12:27:20.358Z,20.78
2016-11-19T12:28:20.023Z,20.87
2016-11-19T12:29:20.325Z,20.87
2016-11-19T12:30:20.342Z,20.9
2016-11-19T12:31:20.296Z,20.87
2016-11-19T12:32:20.276Z,20.9
2016-11-19T12:33:20.260Z,20.82
2016-11-19T12:34:20.244Z,20.88
2016-11-19T12:35:20.229Z,20.85
2016-11-19T12:36:20.215Z,20.85
2016-11-19T12:37:19.887Z,20.88
2016-11-19T12:38:20.182Z,20.82
2016-11-19T12:39:20.168Z,20.79
2016-11-19T12:40:20.152Z,20.76
2016-11-19T12:41:20.132Z,20.71
2016-11-19T12:42:20.123Z,20.73
2016-11-19T12:43:20.104Z,20.75
2016-11-19T12:44:20.092Z,20.83
2016-11-19T12:45:20.068Z,20.78
2016-11-19T12:46:20.064Z,20.71
2016-11-19T12:47:20.043Z,20.81
2016-11-19T12:48:20.024Z,20.81
2016-11-19T12:49:19.697Z,20.79
2016-11-19T12:50:19.988Z,20.83
2016-11-19T12:51:19.983Z,20.83
2016-11-19T12:52:19.964Z,20.83
2016-11-19T12:53:19.625Z,20.9
2016-11-19T12:54:19.924Z,20.87
2016-11-19T12:55:19.943Z,20.83